sensor_id;sensor_type;location;lat;lon;timestamp;P1;durP1;ratioP1;P2;durP2;ratioP2
21000;SDS011;10658;50.920;12.238;2023-05-07T00:03:11;17.42;;;10.07;;
21000;SDS011;10658;50.920;12.238;2023-05-07T00:07:14;18.60;;;10.07;;
21000;SDS011;10658;50.920;12.238;2023-05-07T00:11:15;17.85;;;10.45;;
21000;SDS011;10658;50.920;12.238;2023-05-07T00:15:16;14.00;;;8.98;;
21000;SDS011;10658;50.920;12.238;2023-05-07T00:19:16;14.70;;;8.77;;
21000;SDS011;10658;50.920;12.238;2023-05-07T00:23:17;14.30;;;8.93;;
21000;SDS011;10658;50.920;12.238;2023-05-07T00:27:18;14.20;;;8.48;;
21000;SDS011;10658;50.920;12.238;2023-05-07T00:31:19;11.43;;;8.40;;
21000;SDS011;10658;50.920;12.238;2023-05-07T00:35:20;12.40;;;7.55;;
21000;SDS011;10658;50.920;12.238;2023-05-07T00:39:20;12.77;;;7.88;;
21000;SDS011;10658;50.920;12.238;2023-05-07T00:43:21;11.20;;;7.82;;
21000;SDS011;10658;50.920;12.238;2023-05-07T00:47:22;13.55;;;7.35;;
21000;SDS011;10658;50.920;12.238;2023-05-07T00:51:23;13.80;;;7.65;;
21000;SDS011;10658;50.920;12.238;2023-05-07T00:55:27;14.55;;;8.13;;
21000;SDS011;10658;50.920;12.238;2023-05-07T00:59:28;11.07;;;7.50;;
21000;SDS011;10658;50.920;12.238;2023-05-07T01:03:30;10.43;;;7.13;;
21000;SDS011;10658;50.920;12.238;2023-05-07T01:07:31;13.02;;;7.30;;
21000;SDS011;10658;50.920;12.238;2023-05-07T01:11:33;11.27;;;7.60;;
21000;SDS011;10658;50.920;12.238;2023-05-07T01:15:34;13.25;;;8.07;;
21000;SDS011;10658;50.920;12.238;2023-05-07T01:19:35;11.75;;;7.93;;
21000;SDS011;10658;50.920;12.238;2023-05-07T01:23:36;14.23;;;7.93;;
21000;SDS011;10658;50.920;12.238;2023-05-07T01:27:38;13.15;;;8.50;;
21000;SDS011;10658;50.920;12.238;2023-05-07T01:31:39;12.20;;;7.97;;
21000;SDS011;10658;50.920;12.238;2023-05-07T01:35:43;16.70;;;8.90;;
21000;SDS011;10658;50.920;12.238;2023-05-07T01:39:47;13.80;;;9.05;;
21000;SDS011;10658;50.920;12.238;2023-05-07T01:43:49;13.05;;;8.23;;
21000;SDS011;10658;50.920;12.238;2023-05-07T01:47:52;17.17;;;9.85;;
21000;SDS011;10658;50.920;12.238;2023-05-07T01:51:53;13.80;;;9.02;;
21000;SDS011;10658;50.920;12.238;2023-05-07T01:55:55;12.25;;;8.50;;
21000;SDS011;10658;50.920;12.238;2023-05-07T01:59:58;21.92;;;12.63;;
21000;SDS011;10658;50.920;12.238;2023-05-07T02:03:58;20.73;;;13.05;;
21000;SDS011;10658;50.920;12.238;2023-05-07T02:08:02;24.13;;;13.80;;
21000;SDS011;10658;50.920;12.238;2023-05-07T02:12:05;23.10;;;13.55;;
21000;SDS011;10658;50.920;12.238;2023-05-07T02:16:06;24.67;;;14.20;;
21000;SDS011;10658;50.920;12.238;2023-05-07T02:20:07;24.35;;;13.60;;
21000;SDS011;10658;50.920;12.238;2023-05-07T02:24:14;23.83;;;13.80;;
21000;SDS011;10658;50.920;12.238;2023-05-07T02:28:15;27.23;;;14.00;;
21000;SDS011;10658;50.920;12.238;2023-05-07T02:32:36;21.67;;;13.02;;
21000;SDS011;10658;50.920;12.238;2023-05-07T02:36:37;23.80;;;12.10;;
21000;SDS011;10658;50.920;12.238;2023-05-07T02:40:42;21.85;;;12.70;;
21000;SDS011;10658;50.920;12.238;2023-05-07T02:44:43;24.30;;;11.48;;
21000;SDS011;10658;50.920;12.238;2023-05-07T02:48:44;20.50;;;11.07;;
21000;SDS011;10658;50.920;12.238;2023-05-07T02:52:45;20.02;;;11.52;;
21000;SDS011;10658;50.920;12.238;2023-05-07T02:56:47;17.67;;;10.80;;
21000;SDS011;10658;50.920;12.238;2023-05-07T03:00:48;21.27;;;12.15;;
21000;SDS011;10658;50.920;12.238;2023-05-07T03:04:59;20.33;;;11.05;;
21000;SDS011;10658;50.920;12.238;2023-05-07T03:09:00;22.90;;;11.38;;
21000;SDS011;10658;50.920;12.238;2023-05-07T03:13:01;22.58;;;11.73;;
21000;SDS011;10658;50.920;12.238;2023-05-07T03:17:03;19.23;;;11.23;;
21000;SDS011;10658;50.920;12.238;2023-05-07T03:21:04;19.33;;;11.25;;
21000;SDS011;10658;50.920;12.238;2023-05-07T03:25:05;20.45;;;11.85;;
21000;SDS011;10658;50.920;12.238;2023-05-07T03:29:06;25.27;;;12.13;;
21000;SDS011;10658;50.920;12.238;2023-05-07T03:33:07;21.20;;;12.30;;
21000;SDS011;10658;50.920;12.238;2023-05-07T03:37:08;22.40;;;13.23;;
21000;SDS011;10658;50.920;12.238;2023-05-07T03:41:10;22.60;;;12.55;;
21000;SDS011;10658;50.920;12.238;2023-05-07T03:45:12;23.63;;;12.63;;
21000;SDS011;10658;50.920;12.238;2023-05-07T03:49:17;21.63;;;11.73;;
21000;SDS011;10658;50.920;12.238;2023-05-07T03:53:18;24.17;;;13.00;;
21000;SDS011;10658;50.920;12.238;2023-05-07T03:57:19;22.67;;;13.23;;
21000;SDS011;10658;50.920;12.238;2023-05-07T04:01:21;21.27;;;12.13;;
21000;SDS011;10658;50.920;12.238;2023-05-07T04:05:22;20.38;;;11.98;;
21000;SDS011;10658;50.920;12.238;2023-05-07T04:09:26;22.30;;;13.18;;
21000;SDS011;10658;50.920;12.238;2023-05-07T04:13:29;25.13;;;13.30;;
21000;SDS011;10658;50.920;12.238;2023-05-07T04:17:30;24.58;;;14.00;;
21000;SDS011;10658;50.920;12.238;2023-05-07T04:21:30;30.13;;;14.27;;
21000;SDS011;10658;50.920;12.238;2023-05-07T04:25:32;24.67;;;12.45;;
21000;SDS011;10658;50.920;12.238;2023-05-07T04:29:41;22.90;;;13.00;;
21000;SDS011;10658;50.920;12.238;2023-05-07T04:33:46;30.98;;;14.18;;
21000;SDS011;10658;50.920;12.238;2023-05-07T04:37:49;28.00;;;14.23;;
21000;SDS011;10658;50.920;12.238;2023-05-07T04:41:51;26.02;;;12.85;;
21000;SDS011;10658;50.920;12.238;2023-05-07T04:45:52;26.55;;;14.50;;
21000;SDS011;10658;50.920;12.238;2023-05-07T04:49:54;22.90;;;13.50;;
21000;SDS011;10658;50.920;12.238;2023-05-07T04:53:55;24.58;;;13.57;;
21000;SDS011;10658;50.920;12.238;2023-05-07T04:57:56;25.00;;;13.55;;
21000;SDS011;10658;50.920;12.238;2023-05-07T05:01:57;26.80;;;13.30;;
21000;SDS011;10658;50.920;12.238;2023-05-07T05:05:59;25.65;;;13.52;;
21000;SDS011;10658;50.920;12.238;2023-05-07T05:10:02;26.27;;;13.95;;
21000;SDS011;10658;50.920;12.238;2023-05-07T05:14:08;25.20;;;13.75;;
21000;SDS011;10658;50.920;12.238;2023-05-07T05:18:09;24.00;;;13.20;;
21000;SDS011;10658;50.920;12.238;2023-05-07T05:22:11;23.77;;;13.68;;
21000;SDS011;10658;50.920;12.238;2023-05-07T05:26:11;30.42;;;14.52;;
21000;SDS011;10658;50.920;12.238;2023-05-07T05:30:12;22.75;;;13.50;;
21000;SDS011;10658;50.920;12.238;2023-05-07T05:34:15;25.60;;;14.38;;
21000;SDS011;10658;50.920;12.238;2023-05-07T05:38:17;22.48;;;14.13;;
21000;SDS011;10658;50.920;12.238;2023-05-07T05:42:18;20.77;;;13.27;;
21000;SDS011;10658;50.920;12.238;2023-05-07T05:46:19;24.67;;;13.90;;
21000;SDS011;10658;50.920;12.238;2023-05-07T05:50:21;23.65;;;12.95;;
21000;SDS011;10658;50.920;12.238;2023-05-07T05:54:23;20.70;;;12.55;;
21000;SDS011;10658;50.920;12.238;2023-05-07T05:58:24;21.10;;;12.75;;
21000;SDS011;10658;50.920;12.238;2023-05-07T06:02:30;23.13;;;14.13;;
21000;SDS011;10658;50.920;12.238;2023-05-07T06:06:32;25.83;;;14.13;;
21000;SDS011;10658;50.920;12.238;2023-05-07T06:10:35;22.73;;;13.30;;
21000;SDS011;10658;50.920;12.238;2023-05-07T06:14:39;22.67;;;12.95;;
21000;SDS011;10658;50.920;12.238;2023-05-07T06:18:41;23.25;;;13.95;;
21000;SDS011;10658;50.920;12.238;2023-05-07T06:22:42;22.83;;;12.88;;
21000;SDS011;10658;50.920;12.238;2023-05-07T06:26:45;21.77;;;13.60;;
21000;SDS011;10658;50.920;12.238;2023-05-07T06:30:47;22.20;;;12.98;;
21000;SDS011;10658;50.920;12.238;2023-05-07T06:34:51;20.67;;;11.77;;
21000;SDS011;10658;50.920;12.238;2023-05-07T06:38:53;20.80;;;13.52;;
21000;SDS011;10658;50.920;12.238;2023-05-07T06:42:54;21.25;;;12.98;;
21000;SDS011;10658;50.920;12.238;2023-05-07T06:47:18;17.88;;;10.85;;
21000;SDS011;10658;50.920;12.238;2023-05-07T06:51:23;21.67;;;12.57;;
21000;SDS011;10658;50.920;12.238;2023-05-07T06:55:24;17.85;;;11.05;;
21000;SDS011;10658;50.920;12.238;2023-05-07T06:59:27;19.48;;;12.02;;
21000;SDS011;10658;50.920;12.238;2023-05-07T07:03:29;23.02;;;12.02;;
21000;SDS011;10658;50.920;12.238;2023-05-07T07:07:30;19.85;;;11.77;;
21000;SDS011;10658;50.920;12.238;2023-05-07T07:11:31;20.73;;;11.40;;
21000;SDS011;10658;50.920;12.238;2023-05-07T07:15:32;17.83;;;11.88;;
21000;SDS011;10658;50.920;12.238;2023-05-07T07:19:33;18.55;;;11.32;;
21000;SDS011;10658;50.920;12.238;2023-05-07T07:23:36;17.17;;;11.63;;
21000;SDS011;10658;50.920;12.238;2023-05-07T07:27:37;17.88;;;10.88;;
21000;SDS011;10658;50.920;12.238;2023-05-07T07:31:40;21.08;;;11.45;;
21000;SDS011;10658;50.920;12.238;2023-05-07T07:35:42;16.33;;;10.00;;
21000;SDS011;10658;50.920;12.238;2023-05-07T07:44:34;14.68;;;10.38;;
21000;SDS011;10658;50.920;12.238;2023-05-07T07:48:40;17.15;;;10.93;;
21000;SDS011;10658;50.920;12.238;2023-05-07T07:52:41;18.40;;;10.27;;
21000;SDS011;10658;50.920;12.238;2023-05-07T07:56:43;15.50;;;9.93;;
21000;SDS011;10658;50.920;12.238;2023-05-07T08:00:46;13.18;;;8.60;;
21000;SDS011;10658;50.920;12.238;2023-05-07T08:04:49;13.55;;;9.43;;
21000;SDS011;10658;50.920;12.238;2023-05-07T08:08:49;14.57;;;8.93;;
21000;SDS011;10658;50.920;12.238;2023-05-07T08:12:51;18.42;;;11.23;;
21000;SDS011;10658;50.920;12.238;2023-05-07T08:16:52;13.95;;;8.25;;
21000;SDS011;10658;50.920;12.238;2023-05-07T08:20:53;15.10;;;9.43;;
21000;SDS011;10658;50.920;12.238;2023-05-07T08:24:57;12.88;;;8.20;;
21000;SDS011;10658;50.920;12.238;2023-05-07T08:28:58;12.18;;;8.20;;
21000;SDS011;10658;50.920;12.238;2023-05-07T08:32:59;13.75;;;8.30;;
21000;SDS011;10658;50.920;12.238;2023-05-07T08:37:00;11.90;;;7.75;;
21000;SDS011;10658;50.920;12.238;2023-05-07T08:41:02;12.07;;;7.95;;
21000;SDS011;10658;50.920;12.238;2023-05-07T08:45:07;14.52;;;7.97;;
21000;SDS011;10658;50.920;12.238;2023-05-07T08:49:10;11.35;;;7.80;;
21000;SDS011;10658;50.920;12.238;2023-05-07T08:53:11;15.30;;;8.80;;
21000;SDS011;10658;50.920;12.238;2023-05-07T08:57:14;12.82;;;8.13;;
21000;SDS011;10658;50.920;12.238;2023-05-07T09:01:15;13.68;;;8.77;;
21000;SDS011;10658;50.920;12.238;2023-05-07T09:05:19;13.88;;;8.65;;
21000;SDS011;10658;50.920;12.238;2023-05-07T09:09:24;14.63;;;8.68;;
21000;SDS011;10658;50.920;12.238;2023-05-07T09:13:57;13.95;;;8.95;;
21000;SDS011;10658;50.920;12.238;2023-05-07T09:18:24;11.02;;;7.25;;
21000;SDS011;10658;50.920;12.238;2023-05-07T09:22:26;11.18;;;7.95;;
21000;SDS011;10658;50.920;12.238;2023-05-07T09:26:33;13.13;;;8.13;;
21000;SDS011;10658;50.920;12.238;2023-05-07T09:30:36;12.27;;;7.43;;
21000;SDS011;10658;50.920;12.238;2023-05-07T09:34:40;10.75;;;6.85;;
21000;SDS011;10658;50.920;12.238;2023-05-07T09:38:42;11.55;;;7.13;;
21000;SDS011;10658;50.920;12.238;2023-05-07T09:42:43;11.13;;;7.03;;
21000;SDS011;10658;50.920;12.238;2023-05-07T09:46:45;10.85;;;7.25;;
21000;SDS011;10658;50.920;12.238;2023-05-07T09:50:59;9.23;;;6.90;;
21000;SDS011;10658;50.920;12.238;2023-05-07T09:55:05;12.32;;;7.97;;
21000;SDS011;10658;50.920;12.238;2023-05-07T09:59:07;10.50;;;7.43;;
21000;SDS011;10658;50.920;12.238;2023-05-07T10:03:10;13.15;;;8.30;;
21000;SDS011;10658;50.920;12.238;2023-05-07T10:07:24;12.48;;;8.05;;
21000;SDS011;10658;50.920;12.238;2023-05-07T10:11:29;10.43;;;7.70;;
21000;SDS011;10658;50.920;12.238;2023-05-07T10:15:32;10.88;;;7.47;;
21000;SDS011;10658;50.920;12.238;2023-05-07T10:19:36;10.65;;;6.93;;
21000;SDS011;10658;50.920;12.238;2023-05-07T10:23:39;10.07;;;7.18;;
21000;SDS011;10658;50.920;12.238;2023-05-07T10:27:40;9.93;;;6.85;;
21000;SDS011;10658;50.920;12.238;2023-05-07T10:35:50;9.32;;;6.43;;
21000;SDS011;10658;50.920;12.238;2023-05-07T10:39:55;9.90;;;6.75;;
21000;SDS011;10658;50.920;12.238;2023-05-07T10:43:59;8.95;;;5.97;;
21000;SDS011;10658;50.920;12.238;2023-05-07T10:48:12;9.93;;;6.38;;
21000;SDS011;10658;50.920;12.238;2023-05-07T11:04:38;10.48;;;6.80;;
21000;SDS011;10658;50.920;12.238;2023-05-07T11:08:56;10.63;;;7.20;;
21000;SDS011;10658;50.920;12.238;2023-05-07T11:13:15;9.80;;;6.47;;
21000;SDS011;10658;50.920;12.238;2023-05-07T11:17:21;9.70;;;6.90;;
21000;SDS011;10658;50.920;12.238;2023-05-07T11:21:36;9.27;;;6.82;;
21000;SDS011;10658;50.920;12.238;2023-05-07T11:25:47;9.05;;;6.13;;
21000;SDS011;10658;50.920;12.238;2023-05-07T11:29:54;9.27;;;5.97;;
21000;SDS011;10658;50.920;12.238;2023-05-07T11:33:55;7.25;;;5.47;;
21000;SDS011;10658;50.920;12.238;2023-05-07T11:37:59;7.63;;;5.28;;
21000;SDS011;10658;50.920;12.238;2023-05-07T11:42:02;6.70;;;5.85;;
21000;SDS011;10658;50.920;12.238;2023-05-07T11:46:07;8.68;;;5.75;;
21000;SDS011;10658;50.920;12.238;2023-05-07T11:50:11;8.35;;;6.32;;
21000;SDS011;10658;50.920;12.238;2023-05-07T11:54:14;7.68;;;5.90;;
21000;SDS011;10658;50.920;12.238;2023-05-07T11:58:20;6.65;;;5.22;;
21000;SDS011;10658;50.920;12.238;2023-05-07T12:02:22;7.15;;;5.13;;
21000;SDS011;10658;50.920;12.238;2023-05-07T12:06:27;6.63;;;5.13;;
21000;SDS011;10658;50.920;12.238;2023-05-07T12:10:27;6.95;;;5.45;;
21000;SDS011;10658;50.920;12.238;2023-05-07T12:14:28;7.65;;;5.63;;
21000;SDS011;10658;50.920;12.238;2023-05-07T12:18:29;6.90;;;5.72;;
21000;SDS011;10658;50.920;12.238;2023-05-07T12:22:30;6.85;;;5.18;;
21000;SDS011;10658;50.920;12.238;2023-05-07T12:26:31;6.63;;;4.97;;
21000;SDS011;10658;50.920;12.238;2023-05-07T12:30:36;5.90;;;5.00;;
21000;SDS011;10658;50.920;12.238;2023-05-07T12:34:37;6.22;;;4.90;;
21000;SDS011;10658;50.920;12.238;2023-05-07T12:38:39;5.22;;;4.60;;
21000;SDS011;10658;50.920;12.238;2023-05-07T12:42:40;5.95;;;4.85;;
21000;SDS011;10658;50.920;12.238;2023-05-07T12:46:42;6.63;;;5.20;;
21000;SDS011;10658;50.920;12.238;2023-05-07T12:50:43;5.45;;;4.90;;
21000;SDS011;10658;50.920;12.238;2023-05-07T12:54:44;5.13;;;4.22;;
21000;SDS011;10658;50.920;12.238;2023-05-07T12:58:45;5.10;;;4.43;;
21000;SDS011;10658;50.920;12.238;2023-05-07T13:02:49;5.85;;;4.63;;
21000;SDS011;10658;50.920;12.238;2023-05-07T13:06:49;4.72;;;4.20;;
21000;SDS011;10658;50.920;12.238;2023-05-07T13:10:50;5.55;;;4.85;;
21000;SDS011;10658;50.920;12.238;2023-05-07T13:14:51;5.88;;;4.82;;
21000;SDS011;10658;50.920;12.238;2023-05-07T13:18:52;5.65;;;5.10;;
21000;SDS011;10658;50.920;12.238;2023-05-07T13:22:53;6.70;;;5.72;;
21000;SDS011;10658;50.920;12.238;2023-05-07T13:26:54;5.72;;;5.13;;
21000;SDS011;10658;50.920;12.238;2023-05-07T13:30:55;8.82;;;6.53;;
21000;SDS011;10658;50.920;12.238;2023-05-07T13:34:56;7.88;;;6.35;;
21000;SDS011;10658;50.920;12.238;2023-05-07T13:38:56;9.10;;;6.40;;
21000;SDS011;10658;50.920;12.238;2023-05-07T13:42:59;7.18;;;5.75;;
21000;SDS011;10658;50.920;12.238;2023-05-07T13:47:03;9.02;;;5.97;;
21000;SDS011;10658;50.920;12.238;2023-05-07T13:51:04;6.85;;;5.15;;
21000;SDS011;10658;50.920;12.238;2023-05-07T13:55:05;8.57;;;6.28;;
21000;SDS011;10658;50.920;12.238;2023-05-07T13:59:06;8.77;;;5.97;;
21000;SDS011;10658;50.920;12.238;2023-05-07T14:03:07;7.25;;;5.97;;
21000;SDS011;10658;50.920;12.238;2023-05-07T14:07:07;8.73;;;5.75;;
21000;SDS011;10658;50.920;12.238;2023-05-07T14:11:08;7.13;;;5.47;;
21000;SDS011;10658;50.920;12.238;2023-05-07T14:15:09;8.98;;;6.47;;
21000;SDS011;10658;50.920;12.238;2023-05-07T14:19:11;6.68;;;5.80;;
21000;SDS011;10658;50.920;12.238;2023-05-07T14:23:12;6.97;;;5.43;;
21000;SDS011;10658;50.920;12.238;2023-05-07T14:27:13;8.30;;;5.95;;
21000;SDS011;10658;50.920;12.238;2023-05-07T14:31:13;6.18;;;5.40;;
21000;SDS011;10658;50.920;12.238;2023-05-07T14:35:14;8.13;;;5.70;;
21000;SDS011;10658;50.920;12.238;2023-05-07T14:39:15;7.55;;;5.85;;
21000;SDS011;10658;50.920;12.238;2023-05-07T14:43:16;7.82;;;5.82;;
21000;SDS011;10658;50.920;12.238;2023-05-07T14:47:16;8.70;;;6.45;;
21000;SDS011;10658;50.920;12.238;2023-05-07T14:51:17;8.57;;;5.80;;
21000;SDS011;10658;50.920;12.238;2023-05-07T14:55:18;8.43;;;6.00;;
21000;SDS011;10658;50.920;12.238;2023-05-07T14:59:19;7.35;;;5.50;;
21000;SDS011;10658;50.920;12.238;2023-05-07T15:03:21;8.27;;;6.45;;
21000;SDS011;10658;50.920;12.238;2023-05-07T15:07:22;8.52;;;6.22;;
21000;SDS011;10658;50.920;12.238;2023-05-07T15:11:22;7.22;;;6.13;;
21000;SDS011;10658;50.920;12.238;2023-05-07T15:15:23;7.65;;;6.45;;
21000;SDS011;10658;50.920;12.238;2023-05-07T15:19:24;6.45;;;5.65;;
21000;SDS011;10658;50.920;12.238;2023-05-07T15:23:29;7.38;;;5.63;;
21000;SDS011;10658;50.920;12.238;2023-05-07T15:27:30;6.82;;;4.88;;
21000;SDS011;10658;50.920;12.238;2023-05-07T15:31:31;8.15;;;5.20;;
21000;SDS011;10658;50.920;12.238;2023-05-07T15:35:32;7.25;;;4.93;;
21000;SDS011;10658;50.920;12.238;2023-05-07T15:39:33;6.45;;;5.60;;
21000;SDS011;10658;50.920;12.238;2023-05-07T15:43:33;6.60;;;5.03;;
21000;SDS011;10658;50.920;12.238;2023-05-07T15:47:43;6.60;;;5.28;;
21000;SDS011;10658;50.920;12.238;2023-05-07T15:51:45;8.98;;;5.53;;
21000;SDS011;10658;50.920;12.238;2023-05-07T15:55:46;7.07;;;5.38;;
21000;SDS011;10658;50.920;12.238;2023-05-07T15:59:47;7.03;;;5.97;;
21000;SDS011;10658;50.920;12.238;2023-05-07T16:03:47;9.95;;;5.22;;
21000;SDS011;10658;50.920;12.238;2023-05-07T16:07:48;5.93;;;5.18;;
21000;SDS011;10658;50.920;12.238;2023-05-07T16:11:49;8.68;;;5.55;;
21000;SDS011;10658;50.920;12.238;2023-05-07T16:15:56;6.88;;;5.97;;
21000;SDS011;10658;50.920;12.238;2023-05-07T16:19:58;8.63;;;5.50;;
21000;SDS011;10658;50.920;12.238;2023-05-07T16:23:59;7.30;;;5.68;;
21000;SDS011;10658;50.920;12.238;2023-05-07T16:27:59;8.45;;;6.70;;
21000;SDS011;10658;50.920;12.238;2023-05-07T16:32:00;7.00;;;5.43;;
21000;SDS011;10658;50.920;12.238;2023-05-07T16:36:01;7.80;;;6.10;;
21000;SDS011;10658;50.920;12.238;2023-05-07T16:40:02;8.63;;;6.15;;
21000;SDS011;10658;50.920;12.238;2023-05-07T16:44:06;7.15;;;5.88;;
21000;SDS011;10658;50.920;12.238;2023-05-07T16:48:08;8.95;;;5.97;;
21000;SDS011;10658;50.920;12.238;2023-05-07T16:52:09;7.53;;;6.30;;
21000;SDS011;10658;50.920;12.238;2023-05-07T16:56:10;9.07;;;6.35;;
21000;SDS011;10658;50.920;12.238;2023-05-07T17:00:10;9.55;;;6.10;;
21000;SDS011;10658;50.920;12.238;2023-05-07T17:04:12;7.60;;;6.53;;
21000;SDS011;10658;50.920;12.238;2023-05-07T17:08:13;8.65;;;6.75;;
21000;SDS011;10658;50.920;12.238;2023-05-07T17:12:14;9.15;;;6.32;;
21000;SDS011;10658;50.920;12.238;2023-05-07T17:16:15;7.80;;;6.00;;
21000;SDS011;10658;50.920;12.238;2023-05-07T17:20:16;8.30;;;6.43;;
21000;SDS011;10658;50.920;12.238;2023-05-07T17:24:16;7.03;;;5.90;;
21000;SDS011;10658;50.920;12.238;2023-05-07T17:28:17;6.72;;;5.32;;
21000;SDS011;10658;50.920;12.238;2023-05-07T17:32:18;6.85;;;5.45;;
21000;SDS011;10658;50.920;12.238;2023-05-07T17:36:19;7.80;;;6.07;;
21000;SDS011;10658;50.920;12.238;2023-05-07T17:40:20;6.80;;;5.95;;
21000;SDS011;10658;50.920;12.238;2023-05-07T17:44:25;9.50;;;6.35;;
21000;SDS011;10658;50.920;12.238;2023-05-07T17:48:26;7.75;;;6.10;;
21000;SDS011;10658;50.920;12.238;2023-05-07T17:52:27;6.75;;;5.85;;
21000;SDS011;10658;50.920;12.238;2023-05-07T17:56:27;7.55;;;5.25;;
21000;SDS011;10658;50.920;12.238;2023-05-07T18:00:28;7.07;;;5.70;;
21000;SDS011;10658;50.920;12.238;2023-05-07T18:04:29;7.25;;;5.43;;
21000;SDS011;10658;50.920;12.238;2023-05-07T18:08:30;8.43;;;5.22;;
21000;SDS011;10658;50.920;12.238;2023-05-07T18:12:31;7.60;;;5.68;;
21000;SDS011;10658;50.920;12.238;2023-05-07T18:16:31;7.75;;;5.88;;
21000;SDS011;10658;50.920;12.238;2023-05-07T18:20:33;7.78;;;6.15;;
21000;SDS011;10658;50.920;12.238;2023-05-07T18:24:33;7.53;;;5.93;;
21000;SDS011;10658;50.920;12.238;2023-05-07T18:28:34;7.65;;;5.95;;
21000;SDS011;10658;50.920;12.238;2023-05-07T18:32:35;7.97;;;6.00;;
21000;SDS011;10658;50.920;12.238;2023-05-07T18:36:36;6.97;;;5.40;;
21000;SDS011;10658;50.920;12.238;2023-05-07T18:40:36;7.90;;;6.50;;
21000;SDS011;10658;50.920;12.238;2023-05-07T18:44:42;9.40;;;6.78;;
21000;SDS011;10658;50.920;12.238;2023-05-07T18:48:44;8.43;;;6.80;;
21000;SDS011;10658;50.920;12.238;2023-05-07T18:52:44;8.73;;;6.68;;
21000;SDS011;10658;50.920;12.238;2023-05-07T18:56:45;9.13;;;7.13;;
21000;SDS011;10658;50.920;12.238;2023-05-07T19:00:46;9.20;;;7.10;;
21000;SDS011;10658;50.920;12.238;2023-05-07T19:04:47;9.48;;;7.55;;
21000;SDS011;10658;50.920;12.238;2023-05-07T19:08:48;10.73;;;7.38;;
21000;SDS011;10658;50.920;12.238;2023-05-07T19:12:49;10.52;;;8.27;;
21000;SDS011;10658;50.920;12.238;2023-05-07T19:16:54;9.32;;;7.00;;
21000;SDS011;10658;50.920;12.238;2023-05-07T19:20:55;10.50;;;7.47;;
21000;SDS011;10658;50.920;12.238;2023-05-07T19:24:56;10.18;;;7.60;;
21000;SDS011;10658;50.920;12.238;2023-05-07T19:28:57;10.27;;;7.32;;
21000;SDS011;10658;50.920;12.238;2023-05-07T19:32:58;9.52;;;7.55;;
21000;SDS011;10658;50.920;12.238;2023-05-07T19:37:00;11.55;;;7.53;;
21000;SDS011;10658;50.920;12.238;2023-05-07T19:41:01;10.75;;;7.32;;
21000;SDS011;10658;50.920;12.238;2023-05-07T19:45:02;9.88;;;6.97;;
21000;SDS011;10658;50.920;12.238;2023-05-07T19:49:03;8.70;;;6.90;;
21000;SDS011;10658;50.920;12.238;2023-05-07T19:53:04;8.77;;;6.63;;
21000;SDS011;10658;50.920;12.238;2023-05-07T19:57:05;9.60;;;7.00;;
21000;SDS011;10658;50.920;12.238;2023-05-07T20:01:06;12.90;;;7.75;;
21000;SDS011;10658;50.920;12.238;2023-05-07T20:05:07;9.95;;;7.68;;
21000;SDS011;10658;50.920;12.238;2023-05-07T20:09:10;9.55;;;7.55;;
21000;SDS011;10658;50.920;12.238;2023-05-07T20:13:11;10.95;;;7.22;;
21000;SDS011;10658;50.920;12.238;2023-05-07T20:17:12;11.05;;;7.57;;
21000;SDS011;10658;50.920;12.238;2023-05-07T20:21:13;10.50;;;7.35;;
21000;SDS011;10658;50.920;12.238;2023-05-07T20:25:15;11.02;;;7.82;;
21000;SDS011;10658;50.920;12.238;2023-05-07T20:29:15;9.80;;;7.85;;
21000;SDS011;10658;50.920;12.238;2023-05-07T20:33:16;11.60;;;7.30;;
21000;SDS011;10658;50.920;12.238;2023-05-07T20:37:17;11.82;;;7.10;;
21000;SDS011;10658;50.920;12.238;2023-05-07T20:41:18;10.30;;;7.50;;
21000;SDS011;10658;50.920;12.238;2023-05-07T20:45:20;13.00;;;8.25;;
21000;SDS011;10658;50.920;12.238;2023-05-07T20:49:21;11.05;;;8.07;;
21000;SDS011;10658;50.920;12.238;2023-05-07T20:53:22;11.32;;;7.97;;
21000;SDS011;10658;50.920;12.238;2023-05-07T20:57:23;10.60;;;7.40;;
21000;SDS011;10658;50.920;12.238;2023-05-07T21:01:24;9.20;;;7.10;;
21000;SDS011;10658;50.920;12.238;2023-05-07T21:05:25;11.90;;;6.50;;
21000;SDS011;10658;50.920;12.238;2023-05-07T21:09:25;11.32;;;8.02;;
21000;SDS011;10658;50.920;12.238;2023-05-07T21:13:26;9.32;;;7.13;;
21000;SDS011;10658;50.920;12.238;2023-05-07T21:17:27;8.52;;;6.57;;
21000;SDS011;10658;50.920;12.238;2023-05-07T21:21:30;9.80;;;7.28;;
21000;SDS011;10658;50.920;12.238;2023-05-07T21:25:31;9.88;;;7.20;;
21000;SDS011;10658;50.920;12.238;2023-05-07T21:29:32;11.10;;;7.88;;
21000;SDS011;10658;50.920;12.238;2023-05-07T21:33:32;11.23;;;7.50;;
21000;SDS011;10658;50.920;12.238;2023-05-07T21:37:33;8.40;;;6.70;;
21000;SDS011;10658;50.920;12.238;2023-05-07T21:41:34;11.77;;;8.20;;
21000;SDS011;10658;50.920;12.238;2023-05-07T21:45:35;8.95;;;7.30;;
21000;SDS011;10658;50.920;12.238;2023-05-07T21:49:38;12.55;;;8.65;;
21000;SDS011;10658;50.920;12.238;2023-05-07T21:53:40;12.02;;;7.22;;
21000;SDS011;10658;50.920;12.238;2023-05-07T21:57:41;11.65;;;8.15;;
21000;SDS011;10658;50.920;12.238;2023-05-07T22:01:42;9.65;;;7.38;;
21000;SDS011;10658;50.920;12.238;2023-05-07T22:05:43;10.98;;;8.40;;
21000;SDS011;10658;50.920;12.238;2023-05-07T22:09:43;11.15;;;7.90;;
21000;SDS011;10658;50.920;12.238;2023-05-07T22:13:44;11.88;;;7.55;;
21000;SDS011;10658;50.920;12.238;2023-05-07T22:17:45;11.45;;;8.13;;
21000;SDS011;10658;50.920;12.238;2023-05-07T22:21:46;10.65;;;8.00;;
21000;SDS011;10658;50.920;12.238;2023-05-07T22:25:46;11.48;;;7.82;;
21000;SDS011;10658;50.920;12.238;2023-05-07T22:29:47;11.60;;;8.05;;
21000;SDS011;10658;50.920;12.238;2023-05-07T22:33:48;13.85;;;8.48;;
21000;SDS011;10658;50.920;12.238;2023-05-07T22:37:49;11.45;;;7.88;;
21000;SDS011;10658;50.920;12.238;2023-05-07T22:41:50;11.27;;;8.02;;
21000;SDS011;10658;50.920;12.238;2023-05-07T22:45:56;10.95;;;7.68;;
21000;SDS011;10658;50.920;12.238;2023-05-07T22:49:59;12.73;;;7.63;;
21000;SDS011;10658;50.920;12.238;2023-05-07T22:54:00;13.48;;;7.93;;
21000;SDS011;10658;50.920;12.238;2023-05-07T22:58:00;11.32;;;7.68;;
21000;SDS011;10658;50.920;12.238;2023-05-07T23:02:01;9.57;;;7.55;;
21000;SDS011;10658;50.920;12.238;2023-05-07T23:06:03;13.45;;;7.38;;
21000;SDS011;10658;50.920;12.238;2023-05-07T23:10:04;10.55;;;8.02;;
21000;SDS011;10658;50.920;12.238;2023-05-07T23:14:05;11.43;;;8.23;;
21000;SDS011;10658;50.920;12.238;2023-05-07T23:18:06;10.73;;;8.07;;
21000;SDS011;10658;50.920;12.238;2023-05-07T23:22:07;12.13;;;7.90;;
21000;SDS011;10658;50.920;12.238;2023-05-07T23:26:09;13.80;;;7.95;;
21000;SDS011;10658;50.920;12.238;2023-05-07T23:30:10;8.98;;;7.47;;
21000;SDS011;10658;50.920;12.238;2023-05-07T23:34:11;11.40;;;7.68;;
21000;SDS011;10658;50.920;12.238;2023-05-07T23:38:12;11.35;;;8.23;;
21000;SDS011;10658;50.920;12.238;2023-05-07T23:42:12;11.65;;;8.20;;
21000;SDS011;10658;50.920;12.238;2023-05-07T23:46:13;14.15;;;8.98;;
21000;SDS011;10658;50.920;12.238;2023-05-07T23:50:14;12.85;;;8.13;;
21000;SDS011;10658;50.920;12.238;2023-05-07T23:54:15;11.07;;;7.97;;
21000;SDS011;10658;50.920;12.238;2023-05-07T23:58:16;13.50;;;8.30;;
